Terminal Aerodrome Forecast
Issued by NWS

Home | Current Version | Previous Version | Text Only | Print | Product List | Glossary On
Versions: 1 2 3 4 5 6 7 8 9 10 11 12 13 14 15 16 17 18 19 20 21 22 23 24 25 26 27 28 29 30 31 32
000
FTUS46 KMTR 281100
TAFSFO
TAF
KSFO 281120Z 2812/2918 27010KT P6SM FEW002 BKN007 OVC012
     FM281700 29010KT P6SM FEW004 BKN009 BKN013
     FM281800 29012G16KT P6SM FEW006 BKN010 BKN014
     FM281900 29017G22KT P6SM FEW010 SCT015
     FM282300 29021G33KT P6SM FEW012 SCT020 SCT250
     FM290300 28017G25KT P6SM FEW009 SCT012 SCT250
     FM290500 27015G22KT P6SM FEW006 BKN009=

USA.gov is the U.S. government's official web portal to all federal, state and local government web resources and services.